Time;durP1;ratioP1;P1;durP2;ratioP2;P2;SDS_P1;SDS_P2;PMS_P1;PMS_P2;Temp;Humidity;BMP_temperature;BMP_pressure;BME280_temperature;BME280_humidity;BME280_pressure;Samples;Min_cycle;Max_cycle;Signal;HPM_P1;HPM_P2
2020/12/05 00:00:46;;;;;;;68.70;32.30;;;3.90;98.00;;;;;;5028541;28;20168;-69
2020/12/05 00:03:12;;;;;;;46.70;24.70;;;4.00;97.90;;;;;;5028085;28;20092;-69
2020/12/05 00:05:41;;;;;;;50.63;25.10;;;3.90;97.90;;;;;;5027841;28;20422;-69
2020/12/05 00:08:09;;;;;;;39.13;21.80;;;3.80;98.70;;;;;;5025026;28;20049;-69
2020/12/05 00:10:36;;;;;;;44.92;24.13;;;3.80;98.30;;;;;;5028157;28;20126;-69
2020/12/05 00:13:02;;;;;;;33.28;20.23;;;3.80;98.40;;;;;;5027841;28;20088;-69
2020/12/05 00:15:28;;;;;;;34.17;19.35;;;3.80;98.50;;;;;;5027936;28;20085;-69
2020/12/05 00:17:55;;;;;;;36.85;19.33;;;3.90;98.40;;;;;;5026702;28;20049;-69
2020/12/05 00:20:21;;;;;;;28.10;16.88;;;4.00;98.20;;;;;;5028300;28;20135;-69
2020/12/05 00:22:47;;;;;;;27.30;16.70;;;4.00;98.00;;;;;;5027565;28;20049;-70
2020/12/05 00:25:14;;;;;;;35.03;18.42;;;4.00;98.00;;;;;;5027006;28;20076;-69
2020/12/05 00:27:40;;;;;;;34.08;18.77;;;4.00;98.00;;;;;;5021805;28;20115;-69
2020/12/05 00:30:06;;;;;;;29.88;17.27;;;4.00;98.00;;;;;;5027556;28;20470;-69
2020/12/05 00:32:33;;;;;;;23.75;14.07;;;4.00;97.90;;;;;;5027586;28;20072;-68
2020/12/05 00:34:59;;;;;;;23.33;13.80;;;4.00;97.80;;;;;;5027506;28;20173;-68
2020/12/05 00:37:30;;;;;;;27.92;14.73;;;4.10;97.60;;;;;;5026953;28;20515;-69
2020/12/05 00:39:56;;;;;;;23.90;13.88;;;4.10;97.80;;;;;;5027877;28;20041;-69
2020/12/05 00:42:24;;;;;;;28.40;15.48;;;4.10;97.80;;;;;;5027606;28;20077;-68
2020/12/05 00:44:51;;;;;;;36.28;16.58;;;4.10;97.70;;;;;;5023047;28;20068;-69
2020/12/05 00:47:17;;;;;;;36.15;18.00;;;4.10;97.60;;;;;;5023651;28;20096;-68
2020/12/05 00:49:43;;;;;;;38.03;20.17;;;4.00;97.80;;;;;;5027728;28;20132;-69
2020/12/05 00:52:10;;;;;;;36.78;19.50;;;4.00;97.90;;;;;;5029176;28;20107;-68
2020/12/05 00:54:36;;;;;;;42.40;20.15;;;4.00;98.00;;;;;;5031191;28;20047;-69
2020/12/05 00:57:03;;;;;;;37.97;19.80;;;4.00;98.00;;;;;;5031189;28;20152;-69
2020/12/05 00:59:29;;;;;;;47.72;22.17;;;3.90;98.10;;;;;;5029309;28;20419;-69
2020/12/05 01:01:55;;;;;;;40.78;20.67;;;4.00;98.00;;;;;;5030763;28;20519;-69
2020/12/05 01:04:23;;;;;;;36.05;19.92;;;4.00;98.00;;;;;;5030584;28;20153;-68
2020/12/05 01:06:49;;;;;;;38.45;19.38;;;4.00;98.00;;;;;;5030384;28;20081;-69
2020/12/05 01:09:16;;;;;;;32.33;18.40;;;4.00;98.00;;;;;;5027107;28;20129;-69
2020/12/05 01:11:46;;;;;;;45.10;22.80;;;4.00;98.00;;;;;;5030677;28;20148;-69
2020/12/05 01:14:13;;;;;;;47.72;22.90;;;4.00;98.10;;;;;;5030709;28;20073;-69
2020/12/05 01:16:39;;;;;;;46.65;21.10;;;3.90;98.00;;;;;;5029782;28;20056;-69
2020/12/05 01:19:06;;;;;;;31.65;19.20;;;4.00;98.10;;;;;;5028508;28;20403;-69
2020/12/05 01:21:32;;;;;;;33.42;17.90;;;3.90;98.20;;;;;;5030086;28;20049;-69
2020/12/05 01:23:59;;;;;;;28.20;16.90;;;3.90;98.20;;;;;;5031337;28;20149;-69
2020/12/05 01:26:25;;;;;;;39.58;21.02;;;3.80;98.30;;;;;;5031014;28;20684;-69
2020/12/05 01:28:51;;;;;;;40.22;21.63;;;3.80;98.50;;;;;;5029696;28;20459;-70
2020/12/05 01:31:18;;;;;;;39.35;21.00;;;3.80;98.60;;;;;;5031268;28;20544;-69
2020/12/05 01:33:44;;;;;;;35.20;18.05;;;3.90;98.40;;;;;;5029868;28;20092;-69
2020/12/05 01:36:10;;;;;;;35.75;18.30;;;3.90;98.30;;;;;;5029917;28;20156;-69
2020/12/05 01:38:37;;;;;;;31.75;17.55;;;3.90;98.20;;;;;;5028790;28;20048;-69
2020/12/05 01:41:03;;;;;;;32.90;17.83;;;3.90;98.30;;;;;;5030780;28;20148;-70
2020/12/05 01:43:31;;;;;;;31.48;17.52;;;3.90;98.20;;;;;;5028275;28;20603;-70
2020/12/05 01:46:07;;;;;;;33.97;17.02;;;3.90;98.10;;;;;;5030013;28;20160;-70
2020/12/05 01:48:34;;;;;;;28.80;15.82;;;3.90;98.10;;;;;;5029679;28;20055;-70
2020/12/05 01:51:01;;;;;;;23.13;14.32;;;3.80;98.30;;;;;;5029698;28;20159;-69
2020/12/05 01:53:28;;;;;;;21.88;14.02;;;3.80;98.20;;;;;;5024253;28;20061;-69
2020/12/05 01:55:55;;;;;;;26.48;15.90;;;3.80;97.90;;;;;;5017817;28;20059;-69
2020/12/05 01:58:21;;;;;;;19.92;12.13;;;3.70;98.10;;;;;;5027239;28;20518;-69
2020/12/05 02:00:47;;;;;;;24.85;14.43;;;3.70;98.10;;;;;;5029306;28;20072;-69
2020/12/05 02:03:17;;;;;;;22.20;13.23;;;3.80;98.10;;;;;;5029412;28;20045;-70
2020/12/05 02:05:55;;;;;;;22.45;13.95;;;3.70;98.20;;;;;;5028275;28;20524;-70
2020/12/05 02:08:40;;;;;;;27.95;14.48;;;3.70;98.40;;;;;;5026926;28;20049;-69
2020/12/05 02:11:13;;;;;;;20.70;12.05;;;3.70;98.40;;;;;;5028122;28;20486;-69
2020/12/05 02:13:46;;;;;;;25.05;14.75;;;3.70;98.00;;;;;;5015705;28;20487;-69
2020/12/05 02:16:13;;;;;;;23.90;13.30;;;3.70;98.00;;;;;;5025484;28;20130;-70
2020/12/05 02:18:40;;;;;;;19.30;10.88;;;3.70;98.00;;;;;;5027566;28;20052;-70
2020/12/05 02:21:11;;;;;;;20.55;11.68;;;3.60;98.00;;;;;;5029896;28;20516;-70
2020/12/05 02:23:38;;;;;;;27.02;14.07;;;3.60;97.90;;;;;;5027545;28;20080;-69
2020/12/05 02:26:09;;;;;;;24.10;14.40;;;3.60;98.00;;;;;;5020793;28;20187;-69
2020/12/05 02:28:35;;;;;;;21.10;11.65;;;3.60;98.00;;;;;;5029208;28;20081;-69
2020/12/05 02:31:02;;;;;;;22.38;12.82;;;3.50;98.10;;;;;;5028175;28;20076;-69
2020/12/05 02:33:28;;;;;;;20.95;12.05;;;3.50;98.40;;;;;;5030495;28;20081;-69
2020/12/05 02:35:55;;;;;;;22.85;13.13;;;3.50;98.30;;;;;;5028959;28;20107;-70
2020/12/05 02:38:39;;;;;;;24.20;13.40;;;3.50;98.40;;;;;;5028563;28;20124;-70
2020/12/05 02:41:05;;;;;;;26.88;14.85;;;3.40;98.20;;;;;;5027460;28;20048;-69
2020/12/05 02:43:33;;;;;;;19.98;12.48;;;3.50;98.30;;;;;;5028346;28;20115;-69
2020/12/05 02:46:01;;;;;;;21.92;12.55;;;3.40;98.30;;;;;;5028221;28;20480;-70
2020/12/05 02:48:27;;;;;;;21.05;12.07;;;3.50;98.10;;;;;;5027296;28;20092;-70
2020/12/05 02:50:53;;;;;;;21.20;11.88;;;3.50;98.10;;;;;;5027940;28;20081;-69
2020/12/05 02:53:20;;;;;;;19.45;9.93;;;3.50;98.10;;;;;;5025548;28;20314;-69
2020/12/05 02:55:46;;;;;;;16.95;9.82;;;3.40;98.10;;;;;;5029521;28;20104;-69
2020/12/05 02:58:12;;;;;;;19.23;10.82;;;3.40;98.10;;;;;;5027371;28;20038;-70
2020/12/05 03:00:39;;;;;;;16.50;10.02;;;3.50;98.10;;;;;;5027347;28;20088;-70
2020/12/05 03:03:05;;;;;;;16.85;8.93;;;3.50;97.90;;;;;;5029628;28;20095;-69
2020/12/05 03:05:32;;;;;;;14.90;9.00;;;3.50;98.10;;;;;;5029287;28;20084;-70
2020/12/05 03:07:58;;;;;;;16.27;9.30;;;3.50;97.50;;;;;;5027037;28;20079;-69
2020/12/05 03:10:25;;;;;;;16.15;9.73;;;3.50;97.70;;;;;;5028355;28;20112;-69
2020/12/05 03:12:51;;;;;;;15.25;9.65;;;3.50;97.60;;;;;;5027434;28;20053;-69
2020/12/05 03:15:18;;;;;;;17.38;9.77;;;3.60;97.50;;;;;;5028014;28;20073;-69
2020/12/05 03:17:44;;;;;;;18.23;9.43;;;3.60;97.50;;;;;;5028728;28;20165;-69
2020/12/05 03:20:11;;;;;;;16.77;9.20;;;3.50;97.70;;;;;;5028504;28;20677;-69
2020/12/05 03:22:38;;;;;;;16.45;9.25;;;3.50;97.80;;;;;;5027964;28;20140;-69
2020/12/05 03:25:05;;;;;;;20.02;10.75;;;3.50;97.60;;;;;;5028156;28;20140;-70
2020/12/05 03:27:31;;;;;;;17.17;10.07;;;3.60;97.40;;;;;;5025124;28;20848;-69
2020/12/05 03:29:57;;;;;;;15.43;9.77;;;3.60;97.40;;;;;;5029752;28;20112;-70
2020/12/05 03:32:30;;;;;;;14.88;7.90;;;3.60;97.50;;;;;;5027326;28;20132;-69
2020/12/05 03:34:58;;;;;;;16.67;8.80;;;3.50;97.60;;;;;;5029817;28;20045;-69
2020/12/05 03:37:25;;;;;;;15.20;8.50;;;3.60;97.40;;;;;;5027160;28;20133;-70
2020/12/05 03:39:52;;;;;;;9.35;5.35;;;3.50;97.50;;;;;;5026012;28;20418;-71
2020/12/05 03:42:18;;;;;;;13.35;7.30;;;3.50;97.40;;;;;;5020374;28;20553;-70
2020/12/05 03:44:45;;;;;;;9.73;5.78;;;3.50;97.50;;;;;;5027881;28;20113;-69
2020/12/05 03:47:11;;;;;;;14.95;8.77;;;3.40;97.50;;;;;;5026258;28;20087;-69
2020/12/05 03:49:38;;;;;;;11.77;6.90;;;3.40;97.70;;;;;;5027645;28;20488;-69
2020/12/05 03:52:05;;;;;;;11.77;7.32;;;3.40;97.70;;;;;;5026569;28;20129;-69
2020/12/05 03:54:32;;;;;;;10.50;6.63;;;3.40;97.80;;;;;;5024631;28;20049;-69
2020/12/05 03:56:59;;;;;;;14.00;7.50;;;3.40;97.50;;;;;;5024065;28;20072;-69
2020/12/05 03:59:26;;;;;;;13.18;7.90;;;3.40;97.80;;;;;;5028196;28;20049;-69
2020/12/05 04:01:52;;;;;;;13.48;8.82;;;3.40;97.80;;;;;;5026500;28;20132;-70
2020/12/05 04:04:19;;;;;;;15.63;8.32;;;3.40;97.80;;;;;;5028629;28;20115;-69
2020/12/05 04:06:45;;;;;;;13.10;8.13;;;3.40;97.70;;;;;;5026030;28;20080;-69
2020/12/05 04:09:12;;;;;;;7.57;4.88;;;3.40;97.80;;;;;;5027587;28;20057;-69
2020/12/05 04:11:39;;;;;;;16.50;9.48;;;3.30;97.80;;;;;;5027399;28;20045;-69
2020/12/05 04:14:07;;;;;;;10.95;6.95;;;3.40;97.80;;;;;;5027467;28;20132;-69
2020/12/05 04:16:35;;;;;;;13.85;7.10;;;3.40;97.70;;;;;;5026152;28;20124;-69
2020/12/05 04:19:02;;;;;;;11.23;6.90;;;3.30;97.90;;;;;;5027123;28;20135;-69
2020/12/05 04:21:28;;;;;;;14.32;8.55;;;3.30;97.80;;;;;;5025605;28;20103;-70
2020/12/05 04:23:55;;;;;;;11.20;6.75;;;3.30;98.10;;;;;;5027342;28;20233;-69
2020/12/05 04:26:22;;;;;;;11.00;6.85;;;3.20;98.10;;;;;;5029136;28;20407;-69
2020/12/05 04:28:49;;;;;;;11.25;7.50;;;3.20;98.20;;;;;;5026912;28;20483;-70
2020/12/05 04:31:16;;;;;;;13.45;8.10;;;3.20;98.40;;;;;;5030885;28;20120;-69
2020/12/05 04:33:42;;;;;;;8.60;5.55;;;3.20;98.60;;;;;;5030224;28;20231;-69
2020/12/05 04:36:09;;;;;;;10.95;6.18;;;3.30;98.10;;;;;;5030610;28;20144;-69
2020/12/05 04:38:35;;;;;;;11.98;5.55;;;3.30;98.10;;;;;;5031308;28;20392;-70
2020/12/05 04:41:02;;;;;;;10.20;6.97;;;3.30;97.90;;;;;;5030241;28;20077;-69
2020/12/05 04:43:29;;;;;;;7.85;5.07;;;3.30;98.10;;;;;;5029870;28;20473;-69
2020/12/05 04:45:56;;;;;;;8.23;5.50;;;3.30;98.00;;;;;;5032567;28;20056;-69
2020/12/05 04:48:23;;;;;;;8.48;5.40;;;3.20;98.40;;;;;;5030108;28;20553;-69
2020/12/05 04:50:53;;;;;;;10.70;7.25;;;3.30;98.30;;;;;;5029574;28;20073;-69
2020/12/05 04:53:22;;;;;;;10.60;6.93;;;3.30;98.20;;;;;;5031793;28;20056;-69
2020/12/05 04:55:48;;;;;;;12.38;7.47;;;3.30;98.20;;;;;;5030214;28;20139;-69
2020/12/05 04:58:22;;;;;;;9.85;6.68;;;3.30;98.10;;;;;;5028753;28;20148;-69
2020/12/05 05:00:57;;;;;;;8.57;5.75;;;3.30;98.20;;;;;;5029999;28;20148;-69
2020/12/05 05:03:27;;;;;;;9.73;6.13;;;3.30;98.30;;;;;;5012398;28;20124;-69
2020/12/05 05:05:55;;;;;;;12.00;6.97;;;3.20;98.40;;;;;;5029631;28;20091;-69
2020/12/05 05:08:26;;;;;;;10.48;6.40;;;3.20;98.50;;;;;;5029891;28;20053;-69
2020/12/05 05:11:10;;;;;;;10.75;6.28;;;3.20;98.60;;;;;;5031839;28;20053;-69
2020/12/05 05:13:55;;;;;;;8.38;5.15;;;3.30;98.70;;;;;;5044023;28;20081;-69
2020/12/05 05:16:23;;;;;;;13.65;6.75;;;3.30;98.60;;;;;;5030321;28;20132;-70
2020/12/05 05:18:50;;;;;;;13.77;7.18;;;3.30;98.60;;;;;;5028708;28;20474;-69
2020/12/05 05:21:39;;;;;;;10.85;6.97;;;3.30;98.40;;;;;;5031272;28;20063;-70
2020/12/05 05:24:20;;;;;;;13.98;7.22;;;3.30;98.40;;;;;;5019929;28;20484;-69
2020/12/05 05:27:03;;;;;;;11.95;7.13;;;3.30;98.50;;;;;;5030903;28;20438;-69
2020/12/05 05:29:37;;;;;;;10.55;5.30;;;3.30;98.60;;;;;;5030337;28;20419;-69
2020/12/05 05:32:10;;;;;;;9.07;5.38;;;3.30;98.50;;;;;;5029864;28;20124;-69
2020/12/05 05:34:37;;;;;;;13.55;6.68;;;3.30;98.90;;;;;;5029782;28;20038;-70
2020/12/05 05:37:12;;;;;;;12.80;7.07;;;3.30;98.70;;;;;;5030244;28;20441;-70
2020/12/05 05:39:47;;;;;;;12.35;6.57;;;3.30;98.60;;;;;;5028737;28;20077;-69
2020/12/05 05:42:29;;;;;;;12.70;7.07;;;3.30;98.60;;;;;;5013582;28;20053;-70
2020/12/05 05:45:22;;;;;;;14.17;7.33;;;3.40;98.40;;;;;;5026727;28;20129;-70
2020/12/05 05:47:50;;;;;;;13.13;7.15;;;3.40;98.30;;;;;;5030293;28;20478;-69
2020/12/05 05:50:24;;;;;;;11.57;6.40;;;3.40;98.10;;;;;;5030539;28;20085;-69
2020/12/05 05:53:03;;;;;;;;;;;3.40;98.30;;;;;;5029008;28;20045;-70
2020/12/05 05:55:55;;;;;;;11.90;6.35;;;3.30;98.40;;;;;;5022473;28;20393;-69
2020/12/05 05:58:22;;;;;;;11.77;6.30;;;3.30;98.50;;;;;;5026749;28;20049;-69
2020/12/05 06:00:50;;;;;;;13.20;6.53;;;3.40;98.50;;;;;;5027848;28;20128;-70
2020/12/05 06:03:16;;;;;;;9.70;6.13;;;3.40;98.60;;;;;;5029477;28;20084;-69
2020/12/05 06:05:48;;;;;;;10.82;6.35;;;3.40;98.60;;;;;;5029733;28;20079;-69
2020/12/05 06:08:36;;;;;;;15.10;9.57;;;3.40;98.60;;;;;;5029118;28;20049;-69
2020/12/05 06:11:10;;;;;;;10.85;7.10;;;3.50;98.40;;;;;;5030549;28;20081;-69
2020/12/05 06:13:36;;;;;;;13.40;7.47;;;3.50;98.30;;;;;;5028801;28;20096;-70
2020/12/05 06:16:03;;;;;;;13.18;7.25;;;3.50;98.30;;;;;;5028229;28;20080;-70
2020/12/05 06:18:31;;;;;;;11.50;6.93;;;3.50;98.40;;;;;;5028476;28;20483;-69
2020/12/05 06:20:57;;;;;;;13.35;7.28;;;3.40;98.40;;;;;;5029699;28;20111;-69
2020/12/05 06:23:47;;;;;;;11.02;7.05;;;3.50;98.60;;;;;;5029633;28;20495;-69
2020/12/05 06:26:23;;;;;;;26.38;14.38;;;3.50;98.60;;;;;;5030072;28;20049;-69
2020/12/05 06:28:50;;;;;;;22.33;13.52;;;3.50;98.60;;;;;;5027516;28;20080;-69
2020/12/05 06:31:16;;;;;;;19.58;12.27;;;3.50;98.50;;;;;;5028886;28;20125;-69
2020/12/05 06:33:44;;;;;;;30.88;19.40;;;3.50;98.50;;;;;;5029816;28;20129;-69
2020/12/05 06:36:29;;;;;;;18.00;12.75;;;3.50;98.50;;;;;;5027978;28;20150;-70
2020/12/05 06:39:24;;;;;;;11.30;7.13;;;3.50;98.60;;;;;;5028829;28;20041;-69
2020/12/05 06:41:52;;;;;;;12.63;7.60;;;3.50;98.50;;;;;;5014025;28;20219;-69
2020/12/05 06:44:24;;;;;;;18.25;8.25;;;3.50;98.60;;;;;;5028174;28;20146;-69
2020/12/05 06:46:55;;;;;;;14.10;8.52;;;3.50;98.50;;;;;;5029987;28;20045;-69
2020/12/05 06:49:39;;;;;;;16.75;10.18;;;3.50;98.40;;;;;;5028263;28;20128;-69
2020/12/05 06:52:24;;;;;;;14.00;8.40;;;3.50;98.90;;;;;;5026148;28;20200;-69
2020/12/05 06:54:52;;;;;;;18.00;9.65;;;3.50;98.60;;;;;;5026671;28;20128;-69
2020/12/05 06:57:20;;;;;;;14.60;7.55;;;3.50;98.70;;;;;;5027691;28;20060;-69
2020/12/05 06:59:47;;;;;;;20.88;10.68;;;3.50;98.70;;;;;;5026896;28;20144;-70
2020/12/05 07:02:33;;;;;;;15.30;7.70;;;3.60;98.80;;;;;;5026842;28;20160;-70
2020/12/05 07:05:18;;;;;;;15.25;9.10;;;3.60;98.70;;;;;;5028205;28;20425;-69
2020/12/05 07:07:56;;;;;;;16.92;9.25;;;3.50;98.80;;;;;;5028121;28;20104;-69
2020/12/05 07:10:47;;;;;;;18.80;10.18;;;3.50;98.90;;;;;;5028573;28;20076;-69
2020/12/05 07:13:19;;;;;;;18.25;9.15;;;3.60;98.70;;;;;;5027028;28;20541;-69
2020/12/05 07:15:45;;;;;;;15.88;8.70;;;3.60;98.80;;;;;;5027511;28;20045;-69
2020/12/05 07:18:41;;;;;;;15.98;9.13;;;3.50;98.70;;;;;;5027785;28;20175;-70
2020/12/05 07:21:08;;;;;;;15.88;8.48;;;3.50;98.80;;;;;;5027522;28;20163;-69
2020/12/05 07:23:35;;;;;;;15.23;7.90;;;3.50;98.40;;;;;;5028258;28;20143;-69
2020/12/05 07:26:03;;;;;;;14.90;9.07;;;3.50;98.40;;;;;;5029049;28;20073;-69
2020/12/05 07:28:29;;;;;;;25.02;12.70;;;3.50;98.60;;;;;;5028131;28;20049;-69
2020/12/05 07:30:56;;;;;;;23.98;12.13;;;3.50;98.40;;;;;;5028094;28;20521;-70
2020/12/05 07:33:23;;;;;;;13.93;8.05;;;3.60;98.40;;;;;;5028347;28;20096;-69
2020/12/05 07:36:00;;;;;;;21.40;12.00;;;3.60;98.40;;;;;;5029508;28;20049;-69
2020/12/05 07:38:28;;;;;;;13.15;7.50;;;3.60;98.30;;;;;;5027071;28;20564;-69
2020/12/05 07:40:56;;;;;;;10.80;5.97;;;3.60;98.10;;;;;;5027050;28;20072;-70
2020/12/05 07:43:22;;;;;;;14.15;7.80;;;3.60;98.10;;;;;;5025501;28;20049;-69
2020/12/05 07:45:51;;;;;;;11.80;7.47;;;3.70;98.20;;;;;;5028871;28;20128;-70
2020/12/05 07:48:20;;;;;;;12.85;6.57;;;3.70;97.80;;;;;;5027289;28;20400;-69
2020/12/05 07:50:48;;;;;;;9.85;6.10;;;3.70;97.80;;;;;;5027426;28;20514;-69
2020/12/05 07:53:25;;;;;;;11.32;7.25;;;3.70;97.90;;;;;;5027508;28;20070;-69
2020/12/05 07:55:53;;;;;;;14.10;7.15;;;3.60;97.80;;;;;;5028976;28;20053;-70
2020/12/05 07:58:20;;;;;;;10.80;6.40;;;3.60;97.90;;;;;;5024288;28;20115;-70
2020/12/05 08:00:47;;;;;;;8.15;4.80;;;3.60;97.70;;;;;;5028913;28;20069;-69
2020/12/05 08:03:20;;;;;;;11.20;6.07;;;3.70;97.40;;;;;;5032723;28;20387;-69
2020/12/05 08:05:57;;;;;;;11.52;5.85;;;3.70;97.60;;;;;;5031576;28;20050;-70
2020/12/05 08:08:28;;;;;;;9.95;6.03;;;3.80;97.50;;;;;;5031467;28;20521;-69
2020/12/05 08:11:02;;;;;;;9.70;4.50;;;3.80;96.70;;;;;;5031331;28;20099;-69
2020/12/05 08:13:30;;;;;;;10.45;5.90;;;3.80;96.70;;;;;;5028015;28;20598;-71
2020/12/05 08:16:07;;;;;;;8.40;4.57;;;3.70;96.80;;;;;;5033263;28;20132;-69
2020/12/05 08:18:37;;;;;;;11.63;6.00;;;3.60;96.90;;;;;;5029885;28;20132;-69
2020/12/05 08:21:05;;;;;;;8.85;5.35;;;3.60;97.00;;;;;;5032812;28;20042;-69
2020/12/05 08:23:33;;;;;;;9.05;4.70;;;3.70;96.90;;;;;;5032008;28;20399;-69
2020/12/05 08:26:08;;;;;;;7.60;4.65;;;3.70;96.50;;;;;;5032614;28;20057;-69
2020/12/05 08:28:39;;;;;;;8.48;4.45;;;3.70;96.50;;;;;;5030383;28;20059;-69
2020/12/05 08:31:08;;;;;;;8.32;4.18;;;3.60;96.10;;;;;;5031791;28;20573;-69
2020/12/05 08:33:48;;;;;;;9.15;4.60;;;3.50;96.20;;;;;;5032558;28;20049;-69
2020/12/05 08:36:31;;;;;;;10.40;4.97;;;3.50;96.60;;;;;;5031418;28;20141;-69
2020/12/05 08:39:06;;;;;;;8.85;5.53;;;3.40;96.50;;;;;;5027056;28;20103;-69
2020/12/05 08:41:41;;;;;;;7.43;3.83;;;3.40;96.50;;;;;;5030445;28;20073;-69
2020/12/05 08:44:13;;;;;;;6.90;4.30;;;3.30;96.50;;;;;;5031367;28;20083;-69
2020/12/05 08:46:39;;;;;;;9.35;4.93;;;3.30;96.70;;;;;;5017614;28;20054;-69
2020/12/05 08:49:21;;;;;;;6.68;4.85;;;3.30;96.30;;;;;;5032413;28;20061;-70
2020/12/05 08:51:51;;;;;;;11.63;5.65;;;3.30;96.40;;;;;;5031218;28;20360;-69
2020/12/05 08:54:17;;;;;;;10.77;4.47;;;3.30;96.40;;;;;;5032225;28;20041;-69
2020/12/05 08:56:44;;;;;;;8.52;4.85;;;3.30;96.40;;;;;;5029502;28;20528;-69
2020/12/05 08:59:11;;;;;;;7.13;4.38;;;3.40;96.30;;;;;;5031454;28;20080;-69
2020/12/05 09:01:44;;;;;;;8.45;4.95;;;3.50;96.10;;;;;;5026717;28;20069;-69
2020/12/05 09:04:25;;;;;;;8.15;5.15;;;3.50;96.30;;;;;;5023051;28;20129;-69
2020/12/05 09:06:53;;;;;;;8.45;5.00;;;3.60;96.20;;;;;;5025709;28;20068;-69
2020/12/05 09:09:29;;;;;;;11.90;6.25;;;3.60;96.20;;;;;;5030523;28;20147;-70
2020/12/05 09:12:07;;;;;;;8.52;5.30;;;3.70;96.40;;;;;;5030572;28;20054;-69
2020/12/05 09:14:35;;;;;;;9.48;5.57;;;3.70;96.30;;;;;;5024855;28;20059;-69
2020/12/05 09:17:02;;;;;;;10.93;6.13;;;3.70;96.20;;;;;;5031699;28;20157;-69
2020/12/05 09:19:30;;;;;;;11.63;5.93;;;3.80;96.20;;;;;;5026935;28;20482;-69
2020/12/05 09:21:57;;;;;;;8.38;5.07;;;3.90;96.00;;;;;;5031074;28;20566;-69
2020/12/05 09:24:24;;;;;;;9.80;5.68;;;3.90;95.70;;;;;;5027037;28;20049;-69
2020/12/05 09:26:59;;;;;;;9.75;6.28;;;3.90;96.00;;;;;;5030522;28;20490;-69
2020/12/05 09:29:25;;;;;;;9.80;6.43;;;3.90;95.80;;;;;;5028127;28;20228;-68
2020/12/05 09:31:56;;;;;;;8.95;4.90;;;3.90;96.10;;;;;;5031258;28;20041;-69
2020/12/05 09:34:36;;;;;;;10.13;5.50;;;4.00;94.80;;;;;;5030058;28;20137;-69
2020/12/05 09:37:10;;;;;;;6.60;4.22;;;4.00;95.00;;;;;;5028775;28;20128;-69
2020/12/05 09:39:38;;;;;;;11.27;5.53;;;4.00;94.60;;;;;;5028866;28;20410;-69
2020/12/05 09:42:04;;;;;;;8.98;5.22;;;4.00;95.10;;;;;;5031055;28;20129;-69
2020/12/05 09:44:31;;;;;;;8.27;4.25;;;3.90;95.20;;;;;;5027286;28;20053;-69
2020/12/05 09:47:01;;;;;;;13.82;6.47;;;3.80;95.20;;;;;;5028461;28;20057;-69
2020/12/05 09:49:28;;;;;;;11.23;7.45;;;3.80;95.30;;;;;;5029508;28;20081;-69
2020/12/05 09:51:55;;;;;;;10.93;7.45;;;3.70;95.90;;;;;;5029585;28;20133;-69
2020/12/05 09:54:21;;;;;;;7.80;4.60;;;3.70;95.60;;;;;;5028509;28;20129;-69
2020/12/05 09:56:49;;;;;;;12.55;6.45;;;3.80;95.20;;;;;;5029866;28;20436;-68
2020/12/05 09:59:16;;;;;;;8.90;5.53;;;3.90;95.30;;;;;;5030275;28;20255;-69
2020/12/05 10:01:42;;;;;;;8.63;5.13;;;3.90;94.90;;;;;;5030372;28;20052;-68
2020/12/05 10:04:09;;;;;;;9.40;5.32;;;3.90;95.00;;;;;;5029082;28;20056;-69
2020/12/05 10:06:35;;;;;;;10.52;6.03;;;3.80;94.90;;;;;;5028980;28;20286;-69
2020/12/05 10:09:01;;;;;;;8.35;5.05;;;3.80;95.40;;;;;;5030274;28;20077;-69
2020/12/05 10:11:27;;;;;;;10.50;5.38;;;3.80;95.50;;;;;;5029565;28;20046;-69
2020/12/05 10:13:54;;;;;;;10.82;5.57;;;4.00;95.60;;;;;;5030183;28;20133;-69
2020/12/05 10:16:20;;;;;;;9.63;5.25;;;4.10;95.40;;;;;;5029389;28;20099;-69
2020/12/05 10:18:47;;;;;;;8.70;5.43;;;4.20;95.00;;;;;;5027861;28;20041;-69
2020/12/05 10:21:13;;;;;;;8.65;4.13;;;4.40;95.10;;;;;;5029961;28;20084;-69
2020/12/05 10:23:40;;;;;;;10.00;5.13;;;4.50;94.80;;;;;;5028121;28;20502;-69
2020/12/05 10:26:08;;;;;;;7.70;4.47;;;4.50;94.30;;;;;;5029156;28;20331;-69
2020/12/05 10:28:34;;;;;;;6.25;3.85;;;4.60;94.10;;;;;;5028881;28;20447;-69
2020/12/05 10:31:00;;;;;;;6.15;4.00;;;4.70;93.70;;;;;;5028931;28;20050;-69
2020/12/05 10:33:26;;;;;;;6.15;4.22;;;4.70;93.80;;;;;;5030269;28;20049;-69
2020/12/05 10:35:52;;;;;;;6.95;4.78;;;4.60;93.60;;;;;;5029190;28;20057;-69
2020/12/05 10:38:19;;;;;;;8.32;4.63;;;4.70;93.60;;;;;;5028206;28;20147;-69
2020/12/05 10:40:45;;;;;;;7.25;4.60;;;4.70;93.60;;;;;;5028843;28;20048;-70
2020/12/05 10:43:11;;;;;;;5.53;3.80;;;4.80;93.10;;;;;;5029417;28;20481;-69
2020/12/05 10:45:38;;;;;;;5.57;3.90;;;4.90;93.10;;;;;;5027932;28;20084;-69
2020/12/05 10:48:04;;;;;;;7.00;4.55;;;4.90;92.90;;;;;;5027841;28;20084;-69
2020/12/05 10:50:30;;;;;;;6.68;3.63;;;5.10;92.90;;;;;;5028978;28;20517;-69
2020/12/05 10:52:57;;;;;;;6.60;4.55;;;5.20;92.40;;;;;;5029012;28;20235;-69
2020/12/05 10:55:23;;;;;;;8.73;5.00;;;5.20;92.50;;;;;;5029367;28;20140;-69
2020/12/05 10:58:02;;;;;;;6.80;4.00;;;5.10;92.20;;;;;;5029131;28;20148;-68
2020/12/05 11:00:28;;;;;;;8.05;3.50;;;5.10;92.20;;;;;;5028029;28;20061;-68
2020/12/05 11:02:55;;;;;;;5.85;3.28;;;5.10;92.10;;;;;;5028709;28;20049;-69
2020/12/05 11:05:21;;;;;;;6.38;3.33;;;5.30;92.30;;;;;;5027689;28;20046;-69
2020/12/05 11:07:48;;;;;;;5.47;3.55;;;5.40;92.00;;;;;;5028238;28;20097;-69
2020/12/05 11:10:15;;;;;;;5.90;3.63;;;5.40;91.50;;;;;;5028245;28;20502;-68
2020/12/05 11:12:42;;;;;;;6.30;3.53;;;5.40;91.40;;;;;;5028706;28;20125;-68
2020/12/05 11:15:08;;;;;;;5.85;3.35;;;5.40;91.30;;;;;;5029467;28;20147;-68
2020/12/05 11:17:34;;;;;;;4.72;3.13;;;5.40;91.00;;;;;;5028119;28;20107;-68
2020/12/05 11:20:01;;;;;;;6.75;3.28;;;5.30;91.00;;;;;;5027318;28;20051;-68
2020/12/05 11:22:27;;;;;;;6.82;3.03;;;5.20;91.40;;;;;;5029058;28;20448;-68
2020/12/05 11:24:54;;;;;;;7.18;3.25;;;5.20;91.30;;;;;;5028903;28;20069;-68
2020/12/05 11:27:20;;;;;;;5.40;3.15;;;5.10;92.10;;;;;;5026172;28;20128;-68
2020/12/05 11:29:46;;;;;;;7.30;3.47;;;5.20;92.40;;;;;;5027959;28;20494;-68
2020/12/05 11:32:13;;;;;;;6.80;3.20;;;5.30;91.80;;;;;;5028309;28;20069;-68
2020/12/05 11:34:39;;;;;;;4.60;2.17;;;5.30;92.00;;;;;;5028663;28;20115;-68
2020/12/05 11:37:05;;;;;;;4.35;2.30;;;5.30;90.90;;;;;;5027054;28;20046;-68
2020/12/05 11:39:31;;;;;;;4.28;2.35;;;5.30;91.50;;;;;;5028239;28;20075;-68
2020/12/05 11:41:58;;;;;;;3.80;2.30;;;5.20;91.00;;;;;;5028686;28;20046;-70
2020/12/05 11:44:24;;;;;;;5.75;3.05;;;5.30;92.00;;;;;;5025341;28;20053;-70
2020/12/05 11:46:51;;;;;;;3.67;1.98;;;5.30;91.80;;;;;;5028436;28;20049;-68
2020/12/05 11:49:17;;;;;;;3.40;2.20;;;5.30;91.60;;;;;;5026752;28;20194;-68
2020/12/05 11:51:44;;;;;;;4.13;2.38;;;5.50;91.70;;;;;;5025082;28;20050;-68
2020/12/05 11:54:10;;;;;;;3.60;2.13;;;5.70;91.40;;;;;;5027052;28;20111;-68
2020/12/05 11:56:38;;;;;;;2.70;1.60;;;5.80;90.90;;;;;;5028206;28;20084;-69
2020/12/05 11:59:04;;;;;;;3.40;2.05;;;5.70;90.80;;;;;;5027389;28;20454;-68
2020/12/05 12:01:30;;;;;;;3.05;1.80;;;5.60;90.60;;;;;;5026594;28;20150;-69
2020/12/05 12:03:57;;;;;;;4.47;2.00;;;5.50;91.20;;;;;;5028078;28;20042;-68
2020/12/05 12:06:23;;;;;;;3.55;1.63;;;5.40;89.90;;;;;;5026381;28;20038;-69
2020/12/05 12:08:49;;;;;;;4.68;1.75;;;5.30;90.80;;;;;;5028053;28;20194;-69
2020/12/05 12:11:22;;;;;;;4.40;2.45;;;5.20;91.10;;;;;;5028414;28;20177;-68
2020/12/05 12:13:48;;;;;;;2.92;1.70;;;5.20;90.80;;;;;;5027748;28;20089;-68
2020/12/05 12:16:15;;;;;;;5.63;2.10;;;5.30;90.40;;;;;;5028658;28;20045;-68
2020/12/05 12:18:42;;;;;;;5.07;2.00;;;5.50;90.30;;;;;;5027708;28;20073;-68
2020/12/05 12:21:09;;;;;;;4.28;2.20;;;5.60;90.50;;;;;;5029190;28;20111;-68
2020/12/05 12:23:35;;;;;;;5.15;2.72;;;5.70;90.30;;;;;;5027834;28;20065;-68
2020/12/05 12:26:02;;;;;;;5.28;2.58;;;5.90;88.60;;;;;;5028219;28;20177;-68
2020/12/05 12:28:28;;;;;;;3.40;1.90;;;5.90;89.00;;;;;;5027219;28;20128;-69
2020/12/05 12:30:54;;;;;;;4.68;2.00;;;5.90;88.50;;;;;;5027700;28;20155;-69
2020/12/05 12:33:21;;;;;;;3.40;1.88;;;6.00;89.40;;;;;;5026733;28;20501;-68
2020/12/05 12:35:47;;;;;;;3.42;2.10;;;6.20;88.30;;;;;;5027290;28;20155;-69
2020/12/05 12:38:13;;;;;;;3.58;2.08;;;6.20;88.80;;;;;;5027669;28;20060;-69
2020/12/05 12:40:40;;;;;;;3.25;2.00;;;6.20;88.90;;;;;;5028462;28;20375;-69
2020/12/05 12:43:06;;;;;;;4.55;2.50;;;6.20;87.90;;;;;;5027941;28;20049;-68
2020/12/05 12:45:33;;;;;;;4.22;1.75;;;6.20;88.80;;;;;;5026636;28;20073;-68
2020/12/05 12:50:31;;;;;;;3.35;1.58;;;6.20;87.90;;;;;;5032654;28;20050;-69
2020/12/05 12:52:58;;;;;;;4.15;1.98;;;6.50;89.00;;;;;;5032504;28;20457;-69
2020/12/05 12:55:24;;;;;;;3.42;1.90;;;6.60;88.10;;;;;;5032137;28;20108;-69
2020/12/05 12:57:52;;;;;;;4.85;2.22;;;6.70;86.80;;;;;;5031979;28;20461;-68
2020/12/05 13:00:18;;;;;;;4.18;1.70;;;6.60;87.40;;;;;;5033112;28;20053;-69